<?xml version='1.0' encoding='UTF-8'?>
<gpx xmlns="http://www.topografix.com/GPX/1/1" creator="www.balnam.be" version="1.1" xmlns:xsi="http://www.w3.org/2001/XMLSchema-instance" xsi:schemaLocation="http://www.topografix.com/GPX/1/1 http://www.topografix.com/GPX/1/1/gpx.xsd">
<trk>
<name>lhtvt44</name>
<cmt>s</cmt>
<desc>Vottem Sentier n°44 Du moulin à vent</desc>
<link href="https://chemins.be/vottem/sentier/44"/><trkseg>
<trkpt lat="50.671532" lon="5.595047"><time>2026-05-03T09:15:37Z</time></trkpt>
<trkpt lat="50.672283" lon="5.595180"><time>2026-05-03T09:25:37Z</time></trkpt>
<trkpt lat="50.673318" lon="5.593965"><time>2026-05-03T09:35:37Z</time></trkpt>
<trkpt lat="50.673441" lon="5.593747"><time>2026-05-03T09:45:37Z</time></trkpt>
<trkpt lat="50.673926" lon="5.592906"><time>2026-05-03T09:55:37Z</time></trkpt>
</trkseg></trk>
<trk>
<name>lhtvt44</name>
<cmt>v</cmt>
<desc>Vottem Sentier n°44 Du moulin à vent</desc>
<link href="https://chemins.be/vottem/sentier/44"/><trkseg>
<trkpt lat="50.673926" lon="5.592906"><time>2026-05-03T09:55:37Z</time></trkpt>
<trkpt lat="50.674628" lon="5.592271"><time>2026-05-03T10:05:37Z</time></trkpt>
<trkpt lat="50.675213" lon="5.591742"><time>2026-05-03T10:15:37Z</time></trkpt>
</trkseg></trk>
<trk>
<name>lhtvt44</name>
<cmt>d</cmt>
<desc>Vottem Sentier n°44 Du moulin à vent</desc>
<link href="https://chemins.be/vottem/sentier/44"/><trkseg>
<trkpt lat="50.675213" lon="5.591742"><time>2026-05-03T10:15:37Z</time></trkpt>
<trkpt lat="50.675892" lon="5.591129"><time>2026-05-03T10:25:37Z</time></trkpt>
<trkpt lat="50.676367" lon="5.590662"><time>2026-05-03T10:35:37Z</time></trkpt>
</trkseg></trk>
<trk>
<name>lhtvt44</name>
<cmt>b</cmt>
<desc>Vottem Sentier n°44 Du moulin à vent</desc>
<link href="https://chemins.be/vottem/sentier/44"/><trkseg>
<trkpt lat="50.676367" lon="5.590662"><time>2026-05-03T10:35:37Z</time></trkpt>
<trkpt lat="50.676654" lon="5.590380"><time>2026-05-03T10:45:37Z</time></trkpt>
</trkseg></trk>
<trk>
<name>lhtvt44</name>
<cmt>v</cmt>
<desc>Vottem Sentier n°44 Du moulin à vent</desc>
<link href="https://chemins.be/vottem/sentier/44"/><trkseg>
<trkpt lat="50.676654" lon="5.590380"><time>2026-05-03T10:45:37Z</time></trkpt>
<trkpt lat="50.677078" lon="5.590020"><time>2026-05-03T10:55:37Z</time></trkpt>
</trkseg></trk>
<trk>
<name>lhtvt44</name>
<cmt>s</cmt>
<desc>Vottem Sentier n°44 Du moulin à vent</desc>
<link href="https://chemins.be/vottem/sentier/44"/><trkseg>
<trkpt lat="50.677078" lon="5.590020"><time>2026-05-03T10:55:37Z</time></trkpt>
<trkpt lat="50.677092" lon="5.589664"><time>2026-05-03T11:05:37Z</time></trkpt>
<trkpt lat="50.677334" lon="5.589396"><time>2026-05-03T11:15:37Z</time></trkpt>
<trkpt lat="50.677440" lon="5.589516"><time>2026-05-03T11:25:37Z</time></trkpt>
</trkseg></trk>
<trk>
<name>lhtvt44</name>
<cmt>r</cmt>
<desc>Vottem Sentier n°44 Du moulin à vent</desc>
<link href="https://chemins.be/vottem/sentier/44"/><trkseg>
<trkpt lat="50.677440" lon="5.589516"><time>2026-05-03T11:25:37Z</time></trkpt>
<trkpt lat="50.678019" lon="5.588331"><time>2026-05-03T11:35:37Z</time></trkpt>
<trkpt lat="50.677875" lon="5.588185"><time>2026-05-03T11:45:37Z</time></trkpt>
<trkpt lat="50.678092" lon="5.587395"><time>2026-05-03T11:55:37Z</time></trkpt>
<trkpt lat="50.678613" lon="5.586551"><time>2026-05-03T12:05:37Z</time></trkpt>
</trkseg></trk>
<trk>
<name>lhtvt44</name>
<cmt>s</cmt>
<desc>Vottem Sentier n°44 Du moulin à vent</desc>
<link href="https://chemins.be/vottem/sentier/44"/><trkseg>
<trkpt lat="50.678613" lon="5.586551"><time>2026-05-03T12:05:37Z</time></trkpt>
<trkpt lat="50.678951" lon="5.586099"><time>2026-05-03T12:15:37Z</time></trkpt>
<trkpt lat="50.678987" lon="5.584811"><time>2026-05-03T12:25:37Z</time></trkpt>
</trkseg></trk>
<trk>
<name>lhtvt44</name>
<cmt>d</cmt>
<desc>Vottem Sentier n°44 Du moulin à vent</desc>
<link href="https://chemins.be/vottem/sentier/44"/><trkseg>
<trkpt lat="50.678987" lon="5.584811"><time>2026-05-03T12:25:37Z</time></trkpt>
<trkpt lat="50.679212" lon="5.583625"><time>2026-05-03T12:35:37Z</time></trkpt>
</trkseg></trk>
<trk>
<name>lhtvt44</name>
<cmt>v</cmt>
<desc>Vottem Sentier n°44 Du moulin à vent</desc>
<link href="https://chemins.be/vottem/sentier/44"/><trkseg>
<trkpt lat="50.679212" lon="5.583625"><time>2026-05-03T12:35:37Z</time></trkpt>
<trkpt lat="50.679281" lon="5.583063"><time>2026-05-03T12:45:37Z</time></trkpt>
</trkseg>
</trk>
</gpx>